sensor_id;sensor_type;location;lat;lon;timestamp;P1;durP1;ratioP1;P2;durP2;ratioP2
59788;SDS011;47353;51.614;5.530;2022-10-16T00:00:39;7.40;;;5.10;;
59788;SDS011;47353;51.614;5.530;2022-10-16T00:03:06;8.23;;;5.20;;
59788;SDS011;47353;51.614;5.530;2022-10-16T00:05:32;10.93;;;5.20;;
59788;SDS011;47353;51.614;5.530;2022-10-16T00:08:02;9.65;;;5.07;;
59788;SDS011;47353;51.614;5.530;2022-10-16T00:10:28;8.15;;;5.32;;
59788;SDS011;47353;51.614;5.530;2022-10-16T00:12:53;9.38;;;5.38;;
59788;SDS011;47353;51.614;5.530;2022-10-16T00:15:19;10.90;;;5.07;;
59788;SDS011;47353;51.614;5.530;2022-10-16T00:17:44;8.05;;;4.40;;
59788;SDS011;47353;51.614;5.530;2022-10-16T00:20:10;7.18;;;4.80;;
59788;SDS011;47353;51.614;5.530;2022-10-16T00:22:35;9.45;;;4.82;;
59788;SDS011;47353;51.614;5.530;2022-10-16T00:25:00;7.13;;;4.28;;
59788;SDS011;47353;51.614;5.530;2022-10-16T00:27:26;10.23;;;4.85;;
59788;SDS011;47353;51.614;5.530;2022-10-16T00:29:51;8.77;;;4.90;;
59788;SDS011;47353;51.614;5.530;2022-10-16T00:32:17;8.70;;;5.07;;
59788;SDS011;47353;51.614;5.530;2022-10-16T00:34:44;7.20;;;4.63;;
59788;SDS011;47353;51.614;5.530;2022-10-16T00:37:09;8.38;;;4.53;;
59788;SDS011;47353;51.614;5.530;2022-10-16T00:39:35;8.63;;;4.47;;
59788;SDS011;47353;51.614;5.530;2022-10-16T00:42:00;7.75;;;4.70;;
59788;SDS011;47353;51.614;5.530;2022-10-16T00:44:42;8.38;;;4.45;;
59788;SDS011;47353;51.614;5.530;2022-10-16T00:47:46;8.45;;;4.35;;
59788;SDS011;47353;51.614;5.530;2022-10-16T00:52:42;7.45;;;4.50;;
59788;SDS011;47353;51.614;5.530;2022-10-16T00:55:11;6.85;;;4.43;;
59788;SDS011;47353;51.614;5.530;2022-10-16T00:57:37;10.05;;;4.10;;
59788;SDS011;47353;51.614;5.530;2022-10-16T01:00:07;7.85;;;4.47;;
59788;SDS011;47353;51.614;5.530;2022-10-16T01:02:33;6.68;;;4.45;;
59788;SDS011;47353;51.614;5.530;2022-10-16T01:04:59;9.50;;;4.60;;
59788;SDS011;47353;51.614;5.530;2022-10-16T01:13:17;9.57;;;4.38;;
59788;SDS011;47353;51.614;5.530;2022-10-16T01:15:56;9.45;;;4.72;;
59788;SDS011;47353;51.614;5.530;2022-10-16T01:21:28;7.43;;;4.65;;
59788;SDS011;47353;51.614;5.530;2022-10-16T01:24:01;7.55;;;4.70;;
59788;SDS011;47353;51.614;5.530;2022-10-16T01:29:29;8.88;;;4.88;;
59788;SDS011;47353;51.614;5.530;2022-10-16T01:32:00;8.52;;;4.53;;
59788;SDS011;47353;51.614;5.530;2022-10-16T01:34:44;6.57;;;4.07;;
59788;SDS011;47353;51.614;5.530;2022-10-16T01:37:16;7.40;;;4.57;;
59788;SDS011;47353;51.614;5.530;2022-10-16T01:39:50;7.47;;;4.43;;
59788;SDS011;47353;51.614;5.530;2022-10-16T01:42:21;7.65;;;4.65;;
59788;SDS011;47353;51.614;5.530;2022-10-16T01:44:49;6.53;;;4.57;;
59788;SDS011;47353;51.614;5.530;2022-10-16T01:47:17;6.43;;;4.40;;
59788;SDS011;47353;51.614;5.530;2022-10-16T01:49:44;6.30;;;4.28;;
59788;SDS011;47353;51.614;5.530;2022-10-16T01:52:12;6.57;;;4.38;;
59788;SDS011;47353;51.614;5.530;2022-10-16T01:54:40;5.57;;;4.22;;
59788;SDS011;47353;51.614;5.530;2022-10-16T01:57:08;8.40;;;4.35;;
59788;SDS011;47353;51.614;5.530;2022-10-16T01:59:38;7.43;;;4.22;;
59788;SDS011;47353;51.614;5.530;2022-10-16T02:02:09;7.00;;;4.30;;
59788;SDS011;47353;51.614;5.530;2022-10-16T02:04:50;5.30;;;3.97;;
59788;SDS011;47353;51.614;5.530;2022-10-16T02:07:19;9.70;;;3.77;;
59788;SDS011;47353;51.614;5.530;2022-10-16T02:09:45;5.20;;;3.70;;
59788;SDS011;47353;51.614;5.530;2022-10-16T02:12:45;4.30;;;3.85;;
59788;SDS011;47353;51.614;5.530;2022-10-16T02:17:30;6.40;;;3.58;;
59788;SDS011;47353;51.614;5.530;2022-10-16T02:19:56;6.75;;;3.60;;
59788;SDS011;47353;51.614;5.530;2022-10-16T02:25:06;4.25;;;3.10;;
59788;SDS011;47353;51.614;5.530;2022-10-16T02:27:35;8.20;;;3.50;;
59788;SDS011;47353;51.614;5.530;2022-10-16T02:30:28;6.47;;;3.25;;
59788;SDS011;47353;51.614;5.530;2022-10-16T02:32:58;6.20;;;3.50;;
59788;SDS011;47353;51.614;5.530;2022-10-16T02:35:27;4.05;;;3.35;;
59788;SDS011;47353;51.614;5.530;2022-10-16T02:37:54;6.75;;;3.15;;
59788;SDS011;47353;51.614;5.530;2022-10-16T02:40:21;4.55;;;3.30;;
59788;SDS011;47353;51.614;5.530;2022-10-16T02:42:49;5.50;;;3.22;;
59788;SDS011;47353;51.614;5.530;2022-10-16T02:45:16;6.60;;;3.25;;
59788;SDS011;47353;51.614;5.530;2022-10-16T02:47:42;4.90;;;3.25;;
59788;SDS011;47353;51.614;5.530;2022-10-16T02:50:08;5.63;;;3.58;;
59788;SDS011;47353;51.614;5.530;2022-10-16T02:52:33;4.82;;;3.38;;
59788;SDS011;47353;51.614;5.530;2022-10-16T02:54:59;5.65;;;3.40;;
59788;SDS011;47353;51.614;5.530;2022-10-16T02:57:24;5.00;;;3.55;;
59788;SDS011;47353;51.614;5.530;2022-10-16T02:59:49;5.80;;;3.60;;
59788;SDS011;47353;51.614;5.530;2022-10-16T03:02:15;4.95;;;3.20;;
59788;SDS011;47353;51.614;5.530;2022-10-16T03:04:40;5.68;;;3.28;;
59788;SDS011;47353;51.614;5.530;2022-10-16T03:07:06;6.05;;;3.65;;
59788;SDS011;47353;51.614;5.530;2022-10-16T03:09:32;4.55;;;3.78;;
59788;SDS011;47353;51.614;5.530;2022-10-16T03:11:58;5.93;;;3.63;;
59788;SDS011;47353;51.614;5.530;2022-10-16T03:14:23;5.90;;;3.53;;
59788;SDS011;47353;51.614;5.530;2022-10-16T03:16:49;6.25;;;3.70;;
59788;SDS011;47353;51.614;5.530;2022-10-16T03:19:15;5.65;;;3.50;;
59788;SDS011;47353;51.614;5.530;2022-10-16T03:21:41;7.57;;;3.83;;
59788;SDS011;47353;51.614;5.530;2022-10-16T03:24:07;6.20;;;4.13;;
59788;SDS011;47353;51.614;5.530;2022-10-16T03:26:32;11.75;;;3.78;;
59788;SDS011;47353;51.614;5.530;2022-10-16T03:28:57;8.50;;;3.63;;
59788;SDS011;47353;51.614;5.530;2022-10-16T03:31:23;6.85;;;4.35;;
59788;SDS011;47353;51.614;5.530;2022-10-16T03:33:48;4.78;;;3.95;;
59788;SDS011;47353;51.614;5.530;2022-10-16T03:36:14;5.45;;;3.50;;
59788;SDS011;47353;51.614;5.530;2022-10-16T03:38:39;6.63;;;3.83;;
59788;SDS011;47353;51.614;5.530;2022-10-16T03:41:04;5.55;;;3.60;;
59788;SDS011;47353;51.614;5.530;2022-10-16T03:43:30;5.72;;;3.30;;
59788;SDS011;47353;51.614;5.530;2022-10-16T03:45:55;5.15;;;3.17;;
59788;SDS011;47353;51.614;5.530;2022-10-16T03:48:20;5.68;;;3.53;;
59788;SDS011;47353;51.614;5.530;2022-10-16T03:50:46;5.65;;;3.40;;
59788;SDS011;47353;51.614;5.530;2022-10-16T03:53:13;7.55;;;3.80;;
59788;SDS011;47353;51.614;5.530;2022-10-16T03:55:41;4.38;;;2.90;;
59788;SDS011;47353;51.614;5.530;2022-10-16T03:58:07;4.63;;;3.30;;
59788;SDS011;47353;51.614;5.530;2022-10-16T04:00:32;8.02;;;3.30;;
59788;SDS011;47353;51.614;5.530;2022-10-16T04:02:57;5.63;;;3.13;;
59788;SDS011;47353;51.614;5.530;2022-10-16T04:05:23;6.88;;;3.70;;
59788;SDS011;47353;51.614;5.530;2022-10-16T04:07:49;5.20;;;3.40;;
59788;SDS011;47353;51.614;5.530;2022-10-16T04:10:14;5.13;;;3.00;;
59788;SDS011;47353;51.614;5.530;2022-10-16T04:12:39;4.00;;;3.47;;
59788;SDS011;47353;51.614;5.530;2022-10-16T04:15:05;7.22;;;3.22;;
59788;SDS011;47353;51.614;5.530;2022-10-16T04:17:31;4.97;;;3.53;;
59788;SDS011;47353;51.614;5.530;2022-10-16T04:19:56;9.98;;;4.22;;
59788;SDS011;47353;51.614;5.530;2022-10-16T04:22:21;5.05;;;3.92;;
59788;SDS011;47353;51.614;5.530;2022-10-16T04:24:47;5.50;;;3.78;;
59788;SDS011;47353;51.614;5.530;2022-10-16T04:27:12;8.60;;;4.00;;
59788;SDS011;47353;51.614;5.530;2022-10-16T04:29:37;5.05;;;3.83;;
59788;SDS011;47353;51.614;5.530;2022-10-16T04:32:03;7.35;;;3.60;;
59788;SDS011;47353;51.614;5.530;2022-10-16T04:34:28;4.78;;;3.20;;
59788;SDS011;47353;51.614;5.530;2022-10-16T04:36:53;5.60;;;3.60;;
59788;SDS011;47353;51.614;5.530;2022-10-16T04:39:19;7.78;;;4.20;;
59788;SDS011;47353;51.614;5.530;2022-10-16T04:41:44;7.75;;;3.80;;
59788;SDS011;47353;51.614;5.530;2022-10-16T04:44:10;5.30;;;3.70;;
59788;SDS011;47353;51.614;5.530;2022-10-16T04:46:35;8.23;;;3.80;;
59788;SDS011;47353;51.614;5.530;2022-10-16T04:49:01;6.55;;;3.65;;
59788;SDS011;47353;51.614;5.530;2022-10-16T04:51:26;5.75;;;3.67;;
59788;SDS011;47353;51.614;5.530;2022-10-16T04:53:52;6.15;;;3.15;;
59788;SDS011;47353;51.614;5.530;2022-10-16T04:56:18;5.45;;;3.22;;
59788;SDS011;47353;51.614;5.530;2022-10-16T04:58:43;6.43;;;3.30;;
59788;SDS011;47353;51.614;5.530;2022-10-16T05:01:09;6.65;;;3.10;;
59788;SDS011;47353;51.614;5.530;2022-10-16T05:03:34;5.22;;;3.50;;
59788;SDS011;47353;51.614;5.530;2022-10-16T05:05:59;6.45;;;3.58;;
59788;SDS011;47353;51.614;5.530;2022-10-16T05:08:25;4.40;;;3.33;;
59788;SDS011;47353;51.614;5.530;2022-10-16T05:10:50;6.90;;;3.67;;
59788;SDS011;47353;51.614;5.530;2022-10-16T05:13:16;6.05;;;3.42;;
59788;SDS011;47353;51.614;5.530;2022-10-16T05:15:41;6.90;;;3.50;;
59788;SDS011;47353;51.614;5.530;2022-10-16T05:18:08;6.43;;;3.53;;
59788;SDS011;47353;51.614;5.530;2022-10-16T05:20:33;5.78;;;3.25;;
59788;SDS011;47353;51.614;5.530;2022-10-16T05:22:59;6.07;;;3.30;;
59788;SDS011;47353;51.614;5.530;2022-10-16T05:25:24;4.70;;;3.38;;
59788;SDS011;47353;51.614;5.530;2022-10-16T05:27:49;5.70;;;3.33;;
59788;SDS011;47353;51.614;5.530;2022-10-16T05:30:15;8.00;;;3.78;;
59788;SDS011;47353;51.614;5.530;2022-10-16T05:32:45;4.38;;;3.30;;
59788;SDS011;47353;51.614;5.530;2022-10-16T05:35:11;9.73;;;4.07;;
59788;SDS011;47353;51.614;5.530;2022-10-16T05:37:37;8.23;;;3.67;;
59788;SDS011;47353;51.614;5.530;2022-10-16T05:40:02;5.60;;;3.40;;
59788;SDS011;47353;51.614;5.530;2022-10-16T05:42:29;8.70;;;5.70;;
59788;SDS011;47353;51.614;5.530;2022-10-16T05:44:55;6.80;;;3.42;;
59788;SDS011;47353;51.614;5.530;2022-10-16T05:47:20;7.45;;;3.33;;
59788;SDS011;47353;51.614;5.530;2022-10-16T05:49:46;7.22;;;3.58;;
59788;SDS011;47353;51.614;5.530;2022-10-16T05:52:11;6.15;;;3.40;;
59788;SDS011;47353;51.614;5.530;2022-10-16T05:54:36;9.93;;;4.00;;
59788;SDS011;47353;51.614;5.530;2022-10-16T05:57:02;6.03;;;3.47;;
59788;SDS011;47353;51.614;5.530;2022-10-16T05:59:27;6.13;;;3.97;;
59788;SDS011;47353;51.614;5.530;2022-10-16T06:01:52;7.00;;;3.70;;
59788;SDS011;47353;51.614;5.530;2022-10-16T06:04:18;6.38;;;4.03;;
59788;SDS011;47353;51.614;5.530;2022-10-16T06:06:43;5.93;;;3.53;;
59788;SDS011;47353;51.614;5.530;2022-10-16T06:09:09;7.30;;;3.42;;
59788;SDS011;47353;51.614;5.530;2022-10-16T06:11:34;4.68;;;3.83;;
59788;SDS011;47353;51.614;5.530;2022-10-16T06:14:01;5.95;;;3.80;;
59788;SDS011;47353;51.614;5.530;2022-10-16T06:16:31;6.43;;;4.07;;
59788;SDS011;47353;51.614;5.530;2022-10-16T06:18:58;6.22;;;3.90;;
59788;SDS011;47353;51.614;5.530;2022-10-16T06:21:25;9.02;;;4.45;;
59788;SDS011;47353;51.614;5.530;2022-10-16T06:23:52;7.20;;;4.22;;
59788;SDS011;47353;51.614;5.530;2022-10-16T06:26:19;6.97;;;4.43;;
59788;SDS011;47353;51.614;5.530;2022-10-16T06:28:46;6.13;;;4.70;;
59788;SDS011;47353;51.614;5.530;2022-10-16T06:31:12;6.20;;;4.85;;
59788;SDS011;47353;51.614;5.530;2022-10-16T06:33:39;8.55;;;4.78;;
59788;SDS011;47353;51.614;5.530;2022-10-16T06:36:08;9.52;;;4.82;;
59788;SDS011;47353;51.614;5.530;2022-10-16T06:38:35;9.13;;;4.90;;
59788;SDS011;47353;51.614;5.530;2022-10-16T06:41:01;7.97;;;5.28;;
59788;SDS011;47353;51.614;5.530;2022-10-16T06:43:28;10.98;;;4.90;;
59788;SDS011;47353;51.614;5.530;2022-10-16T06:45:57;10.20;;;5.63;;
59788;SDS011;47353;51.614;5.530;2022-10-16T06:48:24;6.85;;;4.80;;
59788;SDS011;47353;51.614;5.530;2022-10-16T06:53:32;6.93;;;4.80;;
59788;SDS011;47353;51.614;5.530;2022-10-16T06:56:12;8.70;;;5.05;;
59788;SDS011;47353;51.614;5.530;2022-10-16T06:58:39;8.50;;;4.85;;
59788;SDS011;47353;51.614;5.530;2022-10-16T07:01:05;10.15;;;5.07;;
59788;SDS011;47353;51.614;5.530;2022-10-16T07:03:31;9.30;;;4.85;;
59788;SDS011;47353;51.614;5.530;2022-10-16T07:05:56;7.45;;;4.38;;
59788;SDS011;47353;51.614;5.530;2022-10-16T07:08:22;10.15;;;4.60;;
59788;SDS011;47353;51.614;5.530;2022-10-16T07:10:47;7.45;;;4.63;;
59788;SDS011;47353;51.614;5.530;2022-10-16T07:13:13;8.38;;;4.68;;
59788;SDS011;47353;51.614;5.530;2022-10-16T07:15:40;9.40;;;5.65;;
59788;SDS011;47353;51.614;5.530;2022-10-16T07:18:06;6.63;;;4.20;;
59788;SDS011;47353;51.614;5.530;2022-10-16T07:20:31;8.43;;;4.03;;
59788;SDS011;47353;51.614;5.530;2022-10-16T07:22:57;6.50;;;3.95;;
59788;SDS011;47353;51.614;5.530;2022-10-16T07:25:22;8.70;;;3.35;;
59788;SDS011;47353;51.614;5.530;2022-10-16T07:27:47;4.75;;;3.60;;
59788;SDS011;47353;51.614;5.530;2022-10-16T07:30:13;5.50;;;3.13;;
59788;SDS011;47353;51.614;5.530;2022-10-16T07:32:38;6.13;;;3.40;;
59788;SDS011;47353;51.614;5.530;2022-10-16T07:35:04;5.82;;;3.42;;
59788;SDS011;47353;51.614;5.530;2022-10-16T07:37:30;7.65;;;3.10;;
59788;SDS011;47353;51.614;5.530;2022-10-16T07:39:55;7.50;;;2.83;;
59788;SDS011;47353;51.614;5.530;2022-10-16T07:42:20;8.90;;;2.92;;
59788;SDS011;47353;51.614;5.530;2022-10-16T07:44:46;5.35;;;2.65;;
59788;SDS011;47353;51.614;5.530;2022-10-16T07:47:11;4.15;;;2.45;;
59788;SDS011;47353;51.614;5.530;2022-10-16T07:49:36;6.57;;;2.60;;
59788;SDS011;47353;51.614;5.530;2022-10-16T07:52:02;4.55;;;2.13;;
59788;SDS011;47353;51.614;5.530;2022-10-16T07:54:27;6.40;;;2.17;;
59788;SDS011;47353;51.614;5.530;2022-10-16T07:56:53;4.13;;;2.05;;
59788;SDS011;47353;51.614;5.530;2022-10-16T07:59:18;4.97;;;1.80;;
59788;SDS011;47353;51.614;5.530;2022-10-16T08:01:43;5.32;;;2.13;;
59788;SDS011;47353;51.614;5.530;2022-10-16T08:04:09;4.32;;;2.00;;
59788;SDS011;47353;51.614;5.530;2022-10-16T08:06:36;5.53;;;1.92;;
59788;SDS011;47353;51.614;5.530;2022-10-16T08:09:02;3.13;;;1.80;;
59788;SDS011;47353;51.614;5.530;2022-10-16T08:11:28;3.42;;;1.77;;
59788;SDS011;47353;51.614;5.530;2022-10-16T08:13:54;5.13;;;1.77;;
59788;SDS011;47353;51.614;5.530;2022-10-16T08:16:19;6.28;;;1.80;;
59788;SDS011;47353;51.614;5.530;2022-10-16T08:18:45;6.28;;;2.28;;
59788;SDS011;47353;51.614;5.530;2022-10-16T08:21:15;6.07;;;2.00;;
59788;SDS011;47353;51.614;5.530;2022-10-16T08:23:42;3.35;;;1.67;;
59788;SDS011;47353;51.614;5.530;2022-10-16T08:26:09;4.38;;;2.20;;
59788;SDS011;47353;51.614;5.530;2022-10-16T08:28:35;6.15;;;1.98;;
59788;SDS011;47353;51.614;5.530;2022-10-16T08:33:37;3.92;;;1.75;;
59788;SDS011;47353;51.614;5.530;2022-10-16T08:36:03;4.82;;;1.88;;
59788;SDS011;47353;51.614;5.530;2022-10-16T08:38:30;6.07;;;1.90;;
59788;SDS011;47353;51.614;5.530;2022-10-16T08:41:55;4.13;;;1.70;;
59788;SDS011;47353;51.614;5.530;2022-10-16T08:46:46;3.70;;;1.95;;
59788;SDS011;47353;51.614;5.530;2022-10-16T08:49:27;4.97;;;1.90;;
59788;SDS011;47353;51.614;5.530;2022-10-16T08:51:54;5.40;;;1.83;;
59788;SDS011;47353;51.614;5.530;2022-10-16T08:57:35;2.97;;;1.50;;
59788;SDS011;47353;51.614;5.530;2022-10-16T08:59:57;4.68;;;2.30;;
59788;SDS011;47353;51.614;5.530;2022-10-16T09:02:53;3.70;;;1.60;;
59788;SDS011;47353;51.614;5.530;2022-10-16T09:05:45;5.30;;;1.60;;
59788;SDS011;47353;51.614;5.530;2022-10-16T09:13:53;4.45;;;1.52;;
59788;SDS011;47353;51.614;5.530;2022-10-16T09:16:44;4.72;;;1.63;;
59788;SDS011;47353;51.614;5.530;2022-10-16T09:19:19;3.35;;;1.45;;
59788;SDS011;47353;51.614;5.530;2022-10-16T09:21:53;5.50;;;1.33;;
59788;SDS011;47353;51.614;5.530;2022-10-16T09:24:21;6.15;;;1.90;;
59788;SDS011;47353;51.614;5.530;2022-10-16T09:26:50;5.57;;;1.38;;
59788;SDS011;47353;51.614;5.530;2022-10-16T09:29:15;6.68;;;1.40;;
59788;SDS011;47353;51.614;5.530;2022-10-16T09:31:44;4.55;;;1.20;;
59788;SDS011;47353;51.614;5.530;2022-10-16T09:34:30;4.78;;;1.40;;
59788;SDS011;47353;51.614;5.530;2022-10-16T09:37:01;4.38;;;1.38;;
59788;SDS011;47353;51.614;5.530;2022-10-16T09:39:43;4.85;;;1.40;;
59788;SDS011;47353;51.614;5.530;2022-10-16T09:42:19;8.20;;;1.50;;
59788;SDS011;47353;51.614;5.530;2022-10-16T09:44:48;7.40;;;1.60;;
59788;SDS011;47353;51.614;5.530;2022-10-16T09:47:25;6.75;;;1.50;;
59788;SDS011;47353;51.614;5.530;2022-10-16T09:52:19;8.90;;;2.03;;
59788;SDS011;47353;51.614;5.530;2022-10-16T09:54:57;5.70;;;1.38;;
59788;SDS011;47353;51.614;5.530;2022-10-16T09:57:37;6.05;;;1.58;;
59788;SDS011;47353;51.614;5.530;2022-10-16T10:00:04;9.30;;;2.17;;
59788;SDS011;47353;51.614;5.530;2022-10-16T10:02:34;5.88;;;1.40;;
59788;SDS011;47353;51.614;5.530;2022-10-16T10:05:03;7.20;;;1.50;;
59788;SDS011;47353;51.614;5.530;2022-10-16T10:07:31;6.00;;;1.55;;
59788;SDS011;47353;51.614;5.530;2022-10-16T10:09:59;6.93;;;1.42;;
59788;SDS011;47353;51.614;5.530;2022-10-16T10:12:32;7.55;;;1.88;;
59788;SDS011;47353;51.614;5.530;2022-10-16T10:15:09;7.15;;;1.98;;
59788;SDS011;47353;51.614;5.530;2022-10-16T10:17:50;9.35;;;1.50;;
59788;SDS011;47353;51.614;5.530;2022-10-16T10:22:53;9.52;;;2.85;;
59788;SDS011;47353;51.614;5.530;2022-10-16T10:30:35;5.72;;;1.67;;
59788;SDS011;47353;51.614;5.530;2022-10-16T10:33:28;5.35;;;1.50;;
59788;SDS011;47353;51.614;5.530;2022-10-16T10:41:59;8.40;;;1.58;;
59788;SDS011;47353;51.614;5.530;2022-10-16T10:53:20;10.10;;;1.80;;
59788;SDS011;47353;51.614;5.530;2022-10-16T10:55:57;7.47;;;1.60;;
59788;SDS011;47353;51.614;5.530;2022-10-16T11:01:19;7.63;;;1.80;;
59788;SDS011;47353;51.614;5.530;2022-10-16T11:06:33;8.35;;;1.35;;
59788;SDS011;47353;51.614;5.530;2022-10-16T11:12:33;9.60;;;1.70;;
59788;SDS011;47353;51.614;5.530;2022-10-16T11:14:56;6.75;;;1.60;;
59788;SDS011;47353;51.614;5.530;2022-10-16T11:17:30;6.63;;;1.80;;
59788;SDS011;47353;51.614;5.530;2022-10-16T11:22:54;8.55;;;1.75;;
59788;SDS011;47353;51.614;5.530;2022-10-16T11:25:29;9.13;;;1.98;;
59788;SDS011;47353;51.614;5.530;2022-10-16T11:28:11;5.88;;;1.52;;
59788;SDS011;47353;51.614;5.530;2022-10-16T11:46:38;7.68;;;1.48;;
59788;SDS011;47353;51.614;5.530;2022-10-16T11:49:25;6.20;;;1.73;;
59788;SDS011;47353;51.614;5.530;2022-10-16T11:54:47;10.43;;;1.70;;
59788;SDS011;47353;51.614;5.530;2022-10-16T11:57:19;9.15;;;1.70;;
59788;SDS011;47353;51.614;5.530;2022-10-16T11:59:52;7.82;;;1.80;;
59788;SDS011;47353;51.614;5.530;2022-10-16T12:10:30;7.50;;;1.92;;
59788;SDS011;47353;51.614;5.530;2022-10-16T12:13:26;9.68;;;1.77;;
59788;SDS011;47353;51.614;5.530;2022-10-16T12:18:44;14.57;;;2.13;;
59788;SDS011;47353;51.614;5.530;2022-10-16T12:21:15;12.10;;;3.70;;
59788;SDS011;47353;51.614;5.530;2022-10-16T12:23:48;8.17;;;2.63;;
59788;SDS011;47353;51.614;5.530;2022-10-16T12:26:23;11.52;;;3.03;;
59788;SDS011;47353;51.614;5.530;2022-10-16T12:29:22;7.55;;;2.53;;
59788;SDS011;47353;51.614;5.530;2022-10-16T12:31:54;8.77;;;2.72;;
59788;SDS011;47353;51.614;5.530;2022-10-16T12:34:26;9.80;;;2.40;;
59788;SDS011;47353;51.614;5.530;2022-10-16T12:36:52;35.42;;;3.55;;
59788;SDS011;47353;51.614;5.530;2022-10-16T12:39:23;8.75;;;1.90;;
59788;SDS011;47353;51.614;5.530;2022-10-16T12:42:04;8.30;;;2.13;;
59788;SDS011;47353;51.614;5.530;2022-10-16T12:44:43;7.65;;;1.55;;
59788;SDS011;47353;51.614;5.530;2022-10-16T12:47:18;5.47;;;1.60;;
59788;SDS011;47353;51.614;5.530;2022-10-16T12:49:53;10.50;;;1.60;;
59788;SDS011;47353;51.614;5.530;2022-10-16T12:52:27;4.90;;;1.37;;
59788;SDS011;47353;51.614;5.530;2022-10-16T12:54:55;6.68;;;1.95;;
59788;SDS011;47353;51.614;5.530;2022-10-16T13:02:59;5.68;;;1.63;;
59788;SDS011;47353;51.614;5.530;2022-10-16T13:27:30;5.95;;;1.25;;
59788;SDS011;47353;51.614;5.530;2022-10-16T13:30:08;6.93;;;1.40;;
59788;SDS011;47353;51.614;5.530;2022-10-16T13:32:34;6.88;;;1.55;;
59788;SDS011;47353;51.614;5.530;2022-10-16T13:34:59;11.73;;;2.17;;
59788;SDS011;47353;51.614;5.530;2022-10-16T13:37:26;6.47;;;1.20;;
59788;SDS011;47353;51.614;5.530;2022-10-16T13:40:01;6.55;;;1.35;;
59788;SDS011;47353;51.614;5.530;2022-10-16T13:42:37;5.43;;;1.27;;
59788;SDS011;47353;51.614;5.530;2022-10-16T13:45:02;8.02;;;1.52;;
59788;SDS011;47353;51.614;5.530;2022-10-16T13:47:28;7.38;;;1.45;;
59788;SDS011;47353;51.614;5.530;2022-10-16T13:50:01;7.55;;;1.20;;
59788;SDS011;47353;51.614;5.530;2022-10-16T13:52:38;6.95;;;1.38;;
59788;SDS011;47353;51.614;5.530;2022-10-16T13:55:04;6.72;;;1.30;;
59788;SDS011;47353;51.614;5.530;2022-10-16T13:57:36;9.10;;;1.67;;
59788;SDS011;47353;51.614;5.530;2022-10-16T14:00:01;8.57;;;1.50;;
59788;SDS011;47353;51.614;5.530;2022-10-16T14:02:37;9.23;;;2.03;;
59788;SDS011;47353;51.614;5.530;2022-10-16T14:05:04;7.30;;;1.83;;
59788;SDS011;47353;51.614;5.530;2022-10-16T14:07:35;10.00;;;2.20;;
59788;SDS011;47353;51.614;5.530;2022-10-16T14:10:03;7.53;;;1.63;;
59788;SDS011;47353;51.614;5.530;2022-10-16T14:12:30;8.25;;;1.60;;
59788;SDS011;47353;51.614;5.530;2022-10-16T14:14:56;6.80;;;1.60;;
59788;SDS011;47353;51.614;5.530;2022-10-16T14:17:30;5.25;;;1.70;;
59788;SDS011;47353;51.614;5.530;2022-10-16T14:19:59;6.13;;;1.38;;
59788;SDS011;47353;51.614;5.530;2022-10-16T14:22:30;5.93;;;2.17;;
59788;SDS011;47353;51.614;5.530;2022-10-16T14:24:58;8.23;;;1.40;;
59788;SDS011;47353;51.614;5.530;2022-10-16T14:27:28;5.43;;;1.50;;
59788;SDS011;47353;51.614;5.530;2022-10-16T14:32:40;8.85;;;2.88;;
59788;SDS011;47353;51.614;5.530;2022-10-16T14:35:21;7.97;;;4.00;;
59788;SDS011;47353;51.614;5.530;2022-10-16T14:37:51;11.15;;;4.57;;
59788;SDS011;47353;51.614;5.530;2022-10-16T14:40:18;7.97;;;2.60;;
59788;SDS011;47353;51.614;5.530;2022-10-16T14:42:45;6.78;;;1.80;;
59788;SDS011;47353;51.614;5.530;2022-10-16T14:45:11;4.72;;;1.50;;
59788;SDS011;47353;51.614;5.530;2022-10-16T14:47:37;6.70;;;2.55;;
59788;SDS011;47353;51.614;5.530;2022-10-16T14:50:18;4.22;;;1.92;;
59788;SDS011;47353;51.614;5.530;2022-10-16T14:52:43;5.78;;;1.70;;
59788;SDS011;47353;51.614;5.530;2022-10-16T14:55:09;4.35;;;1.17;;
59788;SDS011;47353;51.614;5.530;2022-10-16T14:57:35;5.07;;;1.67;;
59788;SDS011;47353;51.614;5.530;2022-10-16T15:00:03;6.03;;;1.58;;
59788;SDS011;47353;51.614;5.530;2022-10-16T15:02:50;4.85;;;1.60;;
59788;SDS011;47353;51.614;5.530;2022-10-16T15:05:17;8.50;;;2.50;;
59788;SDS011;47353;51.614;5.530;2022-10-16T15:07:43;6.70;;;1.27;;
59788;SDS011;47353;51.614;5.530;2022-10-16T15:10:10;6.60;;;1.58;;
59788;SDS011;47353;51.614;5.530;2022-10-16T15:12:37;5.68;;;1.60;;
59788;SDS011;47353;51.614;5.530;2022-10-16T15:15:09;5.18;;;1.50;;
59788;SDS011;47353;51.614;5.530;2022-10-16T15:17:50;7.03;;;1.65;;
59788;SDS011;47353;51.614;5.530;2022-10-16T15:20:18;4.22;;;1.52;;
59788;SDS011;47353;51.614;5.530;2022-10-16T15:22:44;5.53;;;1.70;;
59788;SDS011;47353;51.614;5.530;2022-10-16T15:25:32;6.15;;;1.63;;
59788;SDS011;47353;51.614;5.530;2022-10-16T15:27:59;4.80;;;1.40;;
59788;SDS011;47353;51.614;5.530;2022-10-16T15:30:25;4.70;;;1.73;;
59788;SDS011;47353;51.614;5.530;2022-10-16T15:32:51;6.13;;;2.00;;
59788;SDS011;47353;51.614;5.530;2022-10-16T15:35:16;8.30;;;2.58;;
59788;SDS011;47353;51.614;5.530;2022-10-16T15:37:42;9.45;;;2.53;;
59788;SDS011;47353;51.614;5.530;2022-10-16T15:40:08;8.15;;;2.88;;
59788;SDS011;47353;51.614;5.530;2022-10-16T15:42:34;4.80;;;2.20;;
59788;SDS011;47353;51.614;5.530;2022-10-16T15:45:00;5.82;;;2.47;;
59788;SDS011;47353;51.614;5.530;2022-10-16T15:47:26;6.53;;;2.85;;
59788;SDS011;47353;51.614;5.530;2022-10-16T15:49:51;8.07;;;3.00;;
59788;SDS011;47353;51.614;5.530;2022-10-16T15:52:17;4.53;;;1.92;;
59788;SDS011;47353;51.614;5.530;2022-10-16T15:54:43;9.75;;;3.08;;
59788;SDS011;47353;51.614;5.530;2022-10-16T15:57:08;7.80;;;2.42;;
59788;SDS011;47353;51.614;5.530;2022-10-16T15:59:34;4.97;;;2.47;;
59788;SDS011;47353;51.614;5.530;2022-10-16T16:01:59;6.43;;;2.50;;
59788;SDS011;47353;51.614;5.530;2022-10-16T16:04:24;4.53;;;2.05;;
59788;SDS011;47353;51.614;5.530;2022-10-16T16:06:50;6.80;;;2.42;;
59788;SDS011;47353;51.614;5.530;2022-10-16T16:09:16;6.03;;;2.20;;
59788;SDS011;47353;51.614;5.530;2022-10-16T16:11:41;6.20;;;2.10;;
59788;SDS011;47353;51.614;5.530;2022-10-16T16:14:09;4.60;;;2.05;;
59788;SDS011;47353;51.614;5.530;2022-10-16T16:16:36;4.38;;;1.90;;
59788;SDS011;47353;51.614;5.530;2022-10-16T16:19:06;5.75;;;2.10;;
59788;SDS011;47353;51.614;5.530;2022-10-16T16:21:32;10.25;;;3.60;;
59788;SDS011;47353;51.614;5.530;2022-10-16T16:23:58;6.93;;;2.80;;
59788;SDS011;47353;51.614;5.530;2022-10-16T16:28:51;7.78;;;3.80;;
59788;SDS011;47353;51.614;5.530;2022-10-16T16:31:17;9.27;;;4.00;;
59788;SDS011;47353;51.614;5.530;2022-10-16T16:33:42;6.32;;;3.42;;
59788;SDS011;47353;51.614;5.530;2022-10-16T16:36:08;8.30;;;2.80;;
59788;SDS011;47353;51.614;5.530;2022-10-16T16:38:34;5.28;;;2.20;;
59788;SDS011;47353;51.614;5.530;2022-10-16T16:41:00;8.68;;;3.47;;
59788;SDS011;47353;51.614;5.530;2022-10-16T16:43:35;11.85;;;8.00;;
59788;SDS011;47353;51.614;5.530;2022-10-16T16:46:01;6.75;;;3.17;;
59788;SDS011;47353;51.614;5.530;2022-10-16T16:48:27;5.30;;;2.42;;
59788;SDS011;47353;51.614;5.530;2022-10-16T16:50:52;7.63;;;2.10;;
59788;SDS011;47353;51.614;5.530;2022-10-16T16:53:17;10.52;;;2.40;;
59788;SDS011;47353;51.614;5.530;2022-10-16T16:55:43;6.88;;;2.47;;
59788;SDS011;47353;51.614;5.530;2022-10-16T16:58:08;5.25;;;2.83;;
59788;SDS011;47353;51.614;5.530;2022-10-16T17:00:34;5.50;;;2.90;;
59788;SDS011;47353;51.614;5.530;2022-10-16T17:02:59;7.85;;;3.30;;
59788;SDS011;47353;51.614;5.530;2022-10-16T17:05:25;6.80;;;3.88;;
59788;SDS011;47353;51.614;5.530;2022-10-16T17:07:50;6.40;;;3.60;;
59788;SDS011;47353;51.614;5.530;2022-10-16T17:10:16;7.75;;;3.90;;
59788;SDS011;47353;51.614;5.530;2022-10-16T17:12:41;8.43;;;3.90;;